Time;durP1;ratioP1;P1;durP2;ratioP2;P2;SDS_P1;SDS_P2;PMS_P1;PMS_P2;Temp;Humidity;BMP_temperature;BMP_pressure;BME280_temperature;BME280_humidity;BME280_pressure;Samples;Min_cycle;Max_cycle;Signal;HPM_P1;HPM_P2
2021/12/25 00:04:29;;;;;;;53.67;49.87;;;;;;;9.75;100.00;100330.02;1799131;78;86365;-73
2021/12/25 00:10:13;;;;;;;52.23;48.10;;;;;;;9.99;100.00;100319.77;1920659;73;86425;-74
2021/12/25 00:15:57;;;;;;;52.23;48.53;;;;;;;9.88;100.00;100325.14;1941893;71;39491;-74
2021/12/25 00:21:40;;;;;;;52.93;49.00;;;;;;;9.83;100.00;100328.00;1821711;76;85469;-76
2021/12/25 00:27:42;;;;;;;53.80;49.77;;;;;;;9.83;100.00;100329.38;1889441;74;86400;-76
2021/12/25 00:33:34;;;;;;;53.77;49.67;;;;;;;9.77;100.00;100325.55;1886859;73;86797;-74
2021/12/25 00:39:08;;;;;;;51.07;47.07;;;;;;;9.72;100.00;100338.91;1945739;73;86134;-74
2021/12/25 00:44:52;;;;;;;51.53;47.63;;;;;;;9.72;100.00;100338.08;1938959;71;39712;-76
2021/12/25 00:50:38;;;;;;;53.50;49.53;;;;;;;9.73;100.00;100346.11;1840191;76;86132;-76
2021/12/25 00:56:22;;;;;;;53.80;49.80;;;;;;;9.79;100.00;100334.42;1890052;74;86082;-76
2021/12/25 01:02:06;;;;;;;52.53;48.37;;;;;;;9.74;100.00;100335.84;1899917;72;86063;-74
2021/12/25 01:07:50;;;;;;;53.60;49.60;;;;;;;9.72;100.00;100334.75;1982938;71;40301;-75
2021/12/25 01:13:39;;;;;;;53.93;49.70;;;;;;;9.83;100.00;100341.03;1825756;77;86203;-76
2021/12/25 01:19:50;;;;;;;57.50;52.80;;;;;;;9.77;100.00;100343.02;1871385;75;86831;-76
2021/12/25 01:31:56;;;;;;;61.30;56.00;;;;;;;9.78;100.00;100356.33;1893527;73;86412;-76
2021/12/25 01:37:41;;;;;;;61.83;56.43;;;;;;;9.85;100.00;100361.80;1831614;75;86401;-75
2021/12/25 01:49:26;;;;;;;62.50;57.00;;;;;;;9.79;100.00;100364.38;1882705;73;86364;-72
2021/12/25 01:55:13;;;;;;;61.70;56.00;;;;;;;9.74;100.00;100377.45;1919477;74;85548;-75
2021/12/25 02:01:00;;;;;;;62.67;56.97;;;;;;;9.90;100.00;100376.18;1847109;75;86727;-76
2021/12/25 02:06:45;;;;;;;62.97;57.13;;;;;;;9.98;100.00;100381.09;1896292;74;85520;-76
2021/12/25 02:12:29;;;;;;;62.60;56.63;;;;;;;9.84;100.00;100380.94;1807645;78;86489;-76
2021/12/25 02:18:17;;;;;;;62.30;56.07;;;;;;;9.77;100.00;100387.95;1908347;74;86050;-72
2021/12/25 02:24:00;;;;;;;61.93;55.90;;;;;;;9.78;100.00;100384.07;1872826;72;85626;-75
2021/12/25 02:29:43;;;;;;;61.60;55.90;;;;;;;9.94;100.00;100378.08;1845696;76;86392;-74
2021/12/25 02:35:29;;;;;;;61.30;55.67;;;;;;;9.91;100.00;100384.78;1813220;78;86715;-77
2021/12/25 02:41:14;;;;;;;61.63;56.10;;;;;;;9.79;100.00;100392.11;1903880;74;86037;-75
2021/12/25 02:47:05;;;;;;;60.53;54.93;;;;;;;9.83;100.00;100397.90;1982900;71;39593;-76
2021/12/25 02:52:44;;;;;;;61.00;55.17;;;;;;;9.84;100.00;100396.78;1809076;78;86253;-75
2021/12/25 02:58:31;;;;;;;60.73;55.23;;;;;;;9.80;100.00;100392.36;1887593;74;86437;-75
2021/12/25 03:04:16;;;;;;;59.57;54.47;;;;;;;9.79;100.00;100389.34;1878856;74;86811;-72
2021/12/25 03:10:00;;;;;;;56.50;51.67;;;;;;;9.81;100.00;100390.41;1926542;73;86491;-75
2021/12/25 03:15:47;;;;;;;59.63;54.60;;;;;;;9.83;100.00;100383.47;1802949;78;86451;-72
2021/12/25 03:21:32;;;;;;;57.27;52.47;;;;;;;9.73;100.00;100383.55;1877676;74;86679;-76
2021/12/25 03:27:16;;;;;;;56.97;51.77;;;;;;;9.76;100.00;100386.29;1800458;78;85492;-76
2021/12/25 03:33:01;;;;;;;56.47;51.50;;;;;;;9.80;100.00;100379.04;1921130;72;86157;-75
2021/12/25 03:38:49;;;;;;;57.10;52.40;;;;;;;9.75;100.00;100379.11;1880034;74;86274;-75
2021/12/25 03:44:35;;;;;;;57.83;52.93;;;;;;;9.78;100.00;100395.16;1832054;76;86348;-76
2021/12/25 04:02:37;;;;;;;55.70;51.03;;;;;;;9.70;100.00;100386.91;1886264;74;86092;-76
2021/12/25 04:08:30;;;;;;;55.63;50.93;;;;;;;9.74;100.00;100396.86;1885754;74;86182;-76
2021/12/25 04:14:10;;;;;;;59.70;54.70;;;;;;;9.73;100.00;100404.35;1913798;73;86156;-75
2021/12/25 04:19:55;;;;;;;57.30;52.10;;;;;;;9.74;100.00;100403.80;1953612;71;39548;-74
2021/12/25 04:29:05;;;;;;;58.60;53.40;;;;;;;9.73;100.00;100419.61;1985045;71;39613;-77
2021/12/25 05:05:02;;;;;;;63.53;57.73;;;;;;;9.74;100.00;100432.92;1874182;74;86388;-77
2021/12/25 05:10:47;;;;;;;61.70;55.80;;;;;;;9.66;100.00;100435.77;1895021;74;86242;-74
2021/12/25 05:16:32;;;;;;;60.43;54.63;;;;;;;9.72;100.00;100434.58;1881085;75;86397;-78
2021/12/25 05:22:17;;;;;;;60.17;54.47;;;;;;;9.74;100.00;100442.62;1792558;79;85554;-74
2021/12/25 05:28:01;;;;;;;63.07;57.17;;;;;;;9.69;100.00;100450.98;1917510;74;86815;-74
2021/12/25 05:33:45;;;;;;;62.63;56.50;;;;;;;9.73;100.00;100458.44;1987801;71;39553;-76
2021/12/25 05:39:32;;;;;;;62.40;56.37;;;;;;;9.73;100.00;100461.20;1878934;74;86414;-76
2021/12/25 05:45:18;;;;;;;62.80;56.60;;;;;;;9.80;100.00;100462.25;1889032;75;86365;-75
2021/12/25 05:51:04;;;;;;;63.53;57.13;;;;;;;9.72;100.00;100456.77;1912592;73;86718;-77
2021/12/25 05:56:47;;;;;;;62.93;56.57;;;;;;;9.68;100.00;100453.47;1975021;71;39817;-75
2021/12/25 06:02:30;;;;;;;66.63;59.90;;;;;;;9.68;100.00;100459.85;1866385;75;86773;-76
2021/12/25 06:08:17;;;;;;;68.83;62.13;;;;;;;9.66;100.00;100464.05;1881090;75;86281;-76
2021/12/25 06:14:09;;;;;;;68.73;62.40;;;;;;;9.72;100.00;100462.31;1921122;73;85294;-72
2021/12/25 06:19:52;;;;;;;67.00;60.80;;;;;;;9.70;100.00;100474.27;1986560;71;39733;-74
2021/12/25 06:28:50;;;;;;;65.73;59.57;;;;;;;9.68;100.00;100485.37;1946183;71;39855;-77
2021/12/25 06:34:33;;;;;;;65.37;59.37;;;;;;;9.62;100.00;100492.08;1848676;76;86125;-74
2021/12/25 06:40:19;;;;;;;63.83;57.67;;;;;;;9.58;100.00;100488.48;1899002;74;85495;-72
2021/12/25 06:46:04;;;;;;;68.07;61.67;;;;;;;9.58;100.00;100490.45;1903466;72;85611;-72
2021/12/25 06:51:48;;;;;;;63.90;58.23;;;;;;;9.57;100.00;100492.39;1950489;71;39816;-76
2021/12/25 06:57:43;;;;;;;68.73;62.53;;;;;;;9.61;100.00;100503.73;1852047;76;86454;-75
2021/12/25 07:03:27;;;;;;;66.83;60.57;;;;;;;9.53;100.00;100507.94;1802915;78;86107;-76
2021/12/25 07:09:11;;;;;;;73.03;66.63;;;;;;;9.57;100.00;100509.02;1910030;74;86515;-77
2021/12/25 07:14:58;;;;;;;68.93;62.60;;;;;;;9.62;100.00;100511.49;1983180;71;40586;-77
2021/12/25 07:20:44;;;;;;;67.27;60.97;;;;;;;9.60;100.00;100517.31;1831953;76;86231;-74
2021/12/25 07:26:31;;;;;;;67.57;61.13;;;;;;;9.69;100.00;100528.08;1809272;77;86492;-73
2021/12/25 07:32:17;;;;;;;67.03;60.93;;;;;;;9.65;100.00;100531.16;1883432;75;86190;-71
2021/12/25 07:41:08;;;;;;;64.67;58.87;;;;;;;9.67;100.00;100523.95;1906592;72;86466;-77
2021/12/25 07:46:54;;;;;;;61.10;55.60;;;;;;;9.70;100.00;100525.58;1981204;71;39614;-77
2021/12/25 07:52:38;;;;;;;62.07;56.60;;;;;;;9.63;100.00;100529.80;1844529;76;86545;-76
2021/12/25 07:58:26;;;;;;;65.93;60.13;;;;;;;9.69;100.00;100536.95;1888009;74;86301;-77
2021/12/25 08:04:12;;;;;;;66.13;60.33;;;;;;;9.73;100.00;100542.19;1870690;74;86394;-76
2021/12/25 08:10:03;;;;;;;62.60;56.97;;;;;;;9.71;100.00;100542.50;1925344;71;40274;-75
2021/12/25 08:15:42;;;;;;;60.87;55.60;;;;;;;9.71;100.00;100550.81;1847958;76;86515;-74
2021/12/25 08:21:26;;;;;;;61.43;56.33;;;;;;;9.75;100.00;100545.52;1895422;73;87310;-76
2021/12/25 08:27:10;;;;;;;63.20;58.30;;;;;;;9.68;100.00;100551.38;1916674;74;86744;-72
2021/12/25 08:32:57;;;;;;;61.63;56.93;;;;;;;9.69;100.00;100548.04;1845365;70;39686;-78
2021/12/25 08:38:42;;;;;;;59.87;55.50;;;;;;;9.60;100.00;100547.27;1836759;76;86761;-79
2021/12/25 08:44:38;;;;;;;60.47;55.97;;;;;;;9.62;100.00;100555.30;1833129;76;85699;-76
2021/12/25 08:50:22;;;;;;;58.90;54.90;;;;;;;9.53;100.00;100562.01;1883371;74;86287;-77
2021/12/25 08:56:07;;;;;;;64.07;59.87;;;;;;;9.47;100.00;100565.08;1911060;72;86092;-74
2021/12/25 09:01:51;;;;;;;59.63;55.73;;;;;;;9.43;100.00;100568.98;1941279;71;39547;-77
2021/12/25 09:07:37;;;;;;;60.23;56.13;;;;;;;9.50;100.00;100581.97;1839995;76;86532;-76
2021/12/25 09:16:36;;;;;;;56.30;52.60;;;;;;;9.45;100.00;100593.10;1819587;77;86488;-77
2021/12/25 09:22:20;;;;;;;58.90;55.10;;;;;;;9.40;100.00;100599.22;1887673;73;86273;-75
2021/12/25 09:28:03;;;;;;;57.23;53.43;;;;;;;9.43;100.00;100609.73;1929951;73;86355;-75
2021/12/25 09:33:52;;;;;;;58.50;54.90;;;;;;;9.39;100.00;100614.18;1944285;71;39629;-79
2021/12/25 09:39:36;;;;;;;57.20;53.50;;;;;;;9.41;100.00;100619.70;1848682;76;86408;-77
2021/12/25 09:45:24;;;;;;;58.27;54.67;;;;;;;9.43;100.00;100624.42;1890443;73;86176;-77
2021/12/25 09:51:13;;;;;;;56.37;52.70;;;;;;;9.46;100.00;100632.16;1921026;73;86417;-78
2021/12/25 09:57:03;;;;;;;52.97;49.67;;;;;;;9.43;100.00;100627.75;1930115;73;86441;-78
2021/12/25 10:02:53;;;;;;;54.23;50.73;;;;;;;9.36;100.00;100624.46;1984358;71;40225;-76
2021/12/25 10:08:42;;;;;;;53.70;50.30;;;;;;;9.31;100.00;100632.23;1825299;76;86194;-77
2021/12/25 10:14:26;;;;;;;55.13;51.73;;;;;;;9.36;100.00;100633.61;1836304;76;86616;-77
2021/12/25 10:20:14;;;;;;;56.80;53.20;;;;;;;9.41;100.00;100641.88;1937281;73;86238;-73
2021/12/25 10:26:14;;;;;;;56.03;52.47;;;;;;;9.30;100.00;100634.72;1917225;72;86217;-77
2021/12/25 10:35:14;;;;;;;56.23;52.63;;;;;;;9.29;100.00;100626.67;1895504;75;86266;-70
2021/12/25 10:37:45;;;;;;;54.20;50.48;;;;;;;9.21;100.00;100636.41;1836826;76;936651;-79
2021/12/25 10:40:28;;;;;;;58.20;54.53;;;;;;;9.22;100.00;100641.40;1845832;76;939033;-79
2021/12/25 10:43:01;;;;;;;56.73;53.03;;;;;;;9.20;100.00;100636.13;1790157;78;938893;-74
2021/12/25 10:45:33;;;;;;;58.07;54.30;;;;;;;9.27;100.00;100635.84;1791769;79;936941;-72
2021/12/25 10:48:08;;;;;;;57.27;53.50;;;;;;;9.22;100.00;100642.78;1791875;78;938723;-76
2021/12/25 10:50:41;;;;;;;57.50;54.03;;;;;;;9.22;100.00;100645.55;1752934;79;938603;-73
2021/12/25 10:53:28;;;;;;;57.90;54.40;;;;;;;9.20;100.00;100648.59;1748952;78;938774;-74
2021/12/25 10:56:09;;;;;;;56.77;53.37;;;;;;;9.13;100.00;100639.20;1795490;77;938774;-71
2021/12/25 10:58:40;;;;;;;57.62;54.05;;;;;;;9.16;100.00;100646.12;1797822;78;937735;-74
2021/12/25 11:01:13;;;;;;;56.93;53.33;;;;;;;9.15;100.00;100645.87;1810016;77;938696;-73
2021/12/25 11:07:01;;;;;;;58.10;54.50;;;;;;;9.17;100.00;100624.23;1818186;78;86011;-78
2021/12/25 11:12:45;;;;;;;60.47;56.77;;;;;;;9.16;100.00;100625.91;1892408;74;85459;-71
2021/12/25 11:18:33;;;;;;;58.13;54.50;;;;;;;9.20;100.00;100625.05;1905667;74;85618;-70
2021/12/25 11:24:26;;;;;;;58.00;54.30;;;;;;;9.16;100.00;100622.56;1871092;75;85341;-73
2021/12/25 11:30:12;;;;;;;63.93;60.10;;;;;;;9.11;100.00;100609.55;1920363;73;85988;-75
2021/12/25 11:35:56;;;;;;;58.93;55.37;;;;;;;9.16;100.00;100610.67;1921669;71;40155;-72
2021/12/25 11:41:40;;;;;;;56.87;53.27;;;;;;;9.14;100.00;100613.72;1837617;75;85524;-81
2021/12/25 11:47:47;;;;;;;54.83;51.23;;;;;;;9.15;100.00;100608.45;1975242;71;39553;-77
2021/12/25 11:53:46;;;;;;;56.53;52.57;;;;;;;9.12;100.00;100605.67;1831699;76;86646;-75
2021/12/25 11:59:46;;;;;;;57.17;53.37;;;;;;;9.04;100.00;100606.25;1829564;76;86186;-76
2021/12/25 12:05:52;;;;;;;60.43;56.50;;;;;;;9.05;100.00;100599.61;1978316;71;39769;-77
2021/12/25 12:11:40;;;;;;;61.03;56.80;;;;;;;9.04;100.00;100588.80;1979073;69;86061;-76
2021/12/25 12:17:33;;;;;;;59.97;55.77;;;;;;;9.03;100.00;100587.13;1814721;76;86279;-73
2021/12/25 12:23:39;;;;;;;62.13;57.93;;;;;;;8.99;100.00;100580.50;1885188;74;86668;-81
2021/12/25 12:29:38;;;;;;;60.20;56.20;;;;;;;8.98;100.00;100576.92;1864070;75;86632;-73
2021/12/25 12:35:35;;;;;;;61.83;57.57;;;;;;;8.90;100.00;100573.31;1871871;74;86571;-74
2021/12/25 12:41:54;;;;;;;57.90;54.00;;;;;;;8.95;100.00;100576.63;1950591;72;86013;-74
2021/12/25 12:47:46;;;;;;;63.40;59.00;;;;;;;8.89;100.00;100570.84;1802339;78;85279;-77
2021/12/25 12:53:35;;;;;;;67.40;63.23;;;;;;;8.89;100.00;100570.30;1875807;74;86184;-74
2021/12/25 12:59:20;;;;;;;70.40;65.70;;;;;;;8.93;100.00;100576.94;1870932;75;85871;-79
2021/12/25 13:05:04;;;;;;;72.10;67.40;;;;;;;8.92;100.00;100571.11;1944165;73;86381;-78
2021/12/25 13:10:51;;;;;;;66.50;62.03;;;;;;;8.89;100.00;100562.54;1984408;71;39618;-77
2021/12/25 13:16:41;;;;;;;70.73;65.87;;;;;;;8.88;100.00;100561.70;1840030;76;86120;-74
2021/12/25 13:22:26;;;;;;;66.23;61.60;;;;;;;8.88;100.00;100559.48;1828924;76;86230;-75
2021/12/25 13:28:13;;;;;;;64.80;60.13;;;;;;;8.90;100.00;100551.75;1909831;74;85455;-75
2021/12/25 13:34:03;;;;;;;68.83;64.20;;;;;;;8.85;100.00;100559.51;1914890;72;85688;-73
2021/12/25 13:39:49;;;;;;;68.77;64.23;;;;;;;8.85;100.00;100556.73;1987627;71;39664;-73
2021/12/25 13:45:40;;;;;;;64.60;60.27;;;;;;;8.81;100.00;100554.27;1841060;76;86513;-75
2021/12/25 13:51:24;;;;;;;63.53;59.13;;;;;;;8.86;100.00;100547.84;1890174;73;86417;-75
2021/12/25 13:57:10;;;;;;;65.70;61.13;;;;;;;8.85;100.00;100542.89;1914587;73;86207;-74
2021/12/25 14:02:57;;;;;;;64.40;59.67;;;;;;;8.84;100.00;100538.45;1976233;71;39521;-75
2021/12/25 14:08:43;;;;;;;63.90;59.50;;;;;;;8.83;100.00;100541.50;1802126;78;86470;-75
2021/12/25 14:14:29;;;;;;;65.10;60.43;;;;;;;8.86;100.00;100548.68;1795689;78;86547;-74
2021/12/25 14:20:18;;;;;;;65.63;61.00;;;;;;;8.85;100.00;100542.06;1951750;72;86419;-75
2021/12/25 14:26:03;;;;;;;61.73;57.47;;;;;;;8.77;100.00;100547.59;1936541;72;86411;-76
2021/12/25 14:31:46;;;;;;;66.40;61.67;;;;;;;8.80;100.00;100548.44;1932938;71;39592;-76
2021/12/25 14:37:36;;;;;;;65.37;60.60;;;;;;;8.84;100.00;100551.47;1851849;75;85449;-72
2021/12/25 14:43:32;;;;;;;63.20;59.13;;;;;;;8.79;100.00;100548.70;1870304;74;85743;-74
2021/12/25 14:49:17;;;;;;;64.23;59.93;;;;;;;8.78;100.00;100550.64;1868659;75;86255;-76
2021/12/25 14:55:03;;;;;;;68.87;64.47;;;;;;;8.77;100.00;100555.91;1904977;72;86424;-77
2021/12/25 15:00:50;;;;;;;63.73;59.53;;;;;;;8.75;100.00;100547.06;1984252;71;39575;-78
2021/12/25 15:06:38;;;;;;;66.43;61.70;;;;;;;8.77;100.00;100550.95;1946131;73;86188;-76
2021/12/25 15:12:26;;;;;;;64.73;60.40;;;;;;;8.75;100.00;100556.75;1880223;74;86461;-74
2021/12/25 15:18:25;;;;;;;68.87;64.43;;;;;;;8.64;100.00;100541.28;1846582;76;86399;-79
2021/12/25 15:24:33;;;;;;;67.00;62.60;;;;;;;8.65;100.00;100545.14;1831073;77;86595;-76
2021/12/25 15:33:31;;;;;;;67.20;62.70;;;;;;;8.58;100.00;100554.84;1882598;74;86309;-73
2021/12/25 15:39:19;;;;;;;65.03;60.40;;;;;;;8.60;100.00;100557.59;1862891;76;86240;-82
2021/12/25 15:45:05;;;;;;;63.53;58.90;;;;;;;8.57;100.00;100562.32;1928347;71;86470;-73
2021/12/25 15:50:49;;;;;;;66.20;61.40;;;;;;;8.60;100.00;100544.34;1974636;71;39664;-76
2021/12/25 15:56:36;;;;;;;68.73;63.53;;;;;;;8.53;100.00;100561.77;1843591;76;86751;-72
2021/12/25 16:02:27;;;;;;;66.07;61.23;;;;;;;8.45;100.00;100552.09;1888562;73;86332;-72
2021/12/25 16:08:08;;;;;;;67.97;63.03;;;;;;;8.48;100.00;100563.98;1916903;73;86283;-73
2021/12/25 16:13:55;;;;;;;68.37;63.33;;;;;;;8.44;100.00;100558.73;2005705;70;39565;-79
2021/12/25 16:19:39;;;;;;;71.00;65.70;;;;;;;8.41;100.00;100553.77;1875243;75;85738;-72
2021/12/25 16:25:23;;;;;;;68.87;63.07;;;;;;;8.37;100.00;100549.06;1897553;73;86140;-77
2021/12/25 16:31:07;;;;;;;69.87;64.63;;;;;;;8.33;100.00;100549.34;1908224;74;86153;-73
2021/12/25 16:36:55;;;;;;;67.53;62.33;;;;;;;8.34;100.00;100560.70;1985493;71;39403;-72
2021/12/25 16:42:39;;;;;;;71.13;65.67;;;;;;;8.28;100.00;100558.98;1843797;76;86778;-77
2021/12/25 16:48:24;;;;;;;68.63;62.93;;;;;;;8.41;100.00;100555.15;1883515;74;86243;-75
2021/12/25 16:54:09;;;;;;;69.40;63.83;;;;;;;8.28;100.00;100550.69;1913765;72;86192;-77
2021/12/25 17:00:01;;;;;;;68.40;62.87;;;;;;;8.26;100.00;100547.39;1820159;78;86189;-76
2021/12/25 17:05:47;;;;;;;66.80;61.37;;;;;;;8.24;100.00;100544.34;1987594;71;39550;-77
2021/12/25 17:11:35;;;;;;;68.00;62.27;;;;;;;8.26;100.00;100548.77;1841753;76;86271;-76
2021/12/25 17:17:23;;;;;;;72.57;66.67;;;;;;;8.26;100.00;100551.54;1873187;75;85478;-77
2021/12/25 17:23:09;;;;;;;72.73;66.93;;;;;;;8.26;100.00;100550.95;1920177;73;86400;-74
2021/12/25 17:28:54;;;;;;;72.10;66.00;;;;;;;8.18;100.00;100529.38;1986274;71;39691;-76
2021/12/25 17:34:40;;;;;;;76.00;69.13;;;;;;;8.21;100.00;100534.38;1846916;76;86544;-75
2021/12/25 17:40:26;;;;;;;73.90;67.60;;;;;;;8.19;100.00;100537.42;1884091;74;86496;-76
2021/12/25 17:46:11;;;;;;;75.60;68.97;;;;;;;8.20;100.00;100541.85;1938881;71;86662;-72
2021/12/25 17:51:55;;;;;;;77.83;70.77;;;;;;;8.19;100.00;100542.95;1975583;71;39750;-73
2021/12/25 17:57:41;;;;;;;77.43;70.57;;;;;;;8.01;100.00;100519.98;1844214;76;86414;-74
2021/12/25 18:03:28;;;;;;;79.33;72.03;;;;;;;8.07;100.00;100542.40;1801100;78;86410;-77
2021/12/25 18:09:15;;;;;;;78.50;71.23;;;;;;;8.08;100.00;100544.62;1805713;79;86477;-80
2021/12/25 18:15:03;;;;;;;79.10;71.67;;;;;;;8.06;100.00;100537.13;1913381;74;86304;-78
2021/12/25 18:20:49;;;;;;;80.37;72.87;;;;;;;8.01;100.00;100527.45;1944034;71;39499;-73
2021/12/25 18:26:34;;;;;;;79.37;71.90;;;;;;;7.97;100.00;100534.09;1849479;76;86536;-82
2021/12/25 18:32:17;;;;;;;78.67;71.47;;;;;;;7.93;100.00;100531.59;1892690;75;86419;-76
2021/12/25 18:38:04;;;;;;;80.07;72.80;;;;;;;7.95;100.00;100531.33;1914241;73;86417;-79
2021/12/25 18:43:48;;;;;;;78.57;70.93;;;;;;;7.92;100.00;100527.72;1981037;71;39634;-71
2021/12/25 18:49:32;;;;;;;79.70;72.03;;;;;;;7.85;100.00;100536.84;1831928;76;86666;-72
2021/12/25 18:55:17;;;;;;;82.60;74.90;;;;;;;7.86;100.00;100537.12;1868349;75;86868;-78
2021/12/25 19:01:02;;;;;;;83.77;75.77;;;;;;;7.75;100.00;100548.16;1914035;72;86556;-71
2021/12/25 19:06:49;;;;;;;85.20;76.93;;;;;;;7.78;100.00;100542.11;1986910;71;39609;-80
2021/12/25 19:12:34;;;;;;;80.60;72.70;;;;;;;7.72;100.00;100548.72;1888463;74;86176;-78
2021/12/25 19:18:17;;;;;;;77.77;70.20;;;;;;;7.84;100.00;100537.39;1883410;75;86497;-83
2021/12/25 19:24:01;;;;;;;80.23;72.60;;;;;;;7.86;100.00;100532.98;1911324;72;86537;-81
2021/12/25 19:29:44;;;;;;;79.97;72.33;;;;;;;7.83;100.00;100530.78;1893562;74;86802;-72
2021/12/25 19:35:28;;;;;;;80.80;73.13;;;;;;;7.79;100.00;100527.70;1801170;78;86081;-81
2021/12/25 19:41:12;;;;;;;79.50;72.03;;;;;;;7.78;100.00;100510.31;1906984;74;86423;-70
2021/12/25 19:46:56;;;;;;;82.77;75.10;;;;;;;7.84;100.00;100504.77;1983508;71;39551;-79
2021/12/25 19:52:41;;;;;;;82.57;75.07;;;;;;;7.80;100.00;100511.40;1830102;76;85562;-77
2021/12/25 19:58:30;;;;;;;76.53;69.27;;;;;;;7.76;100.00;100513.05;1828444;76;86236;-75
2021/12/25 20:04:14;;;;;;;81.27;73.47;;;;;;;7.77;100.00;100510.03;1954524;72;86283;-71
2021/12/25 20:10:04;;;;;;;81.37;73.67;;;;;;;7.73;100.00;100511.69;1783479;80;86446;-79
2021/12/25 20:15:48;;;;;;;81.40;73.30;;;;;;;7.75;100.00;100509.45;1987016;71;39471;-80
2021/12/25 20:21:34;;;;;;;80.37;72.43;;;;;;;7.76;100.00;100504.77;1841226;76;85605;-71
2021/12/25 20:27:18;;;;;;;80.73;72.47;;;;;;;7.71;100.00;100505.59;1859261;77;86456;-77
2021/12/25 20:33:01;;;;;;;85.83;77.23;;;;;;;7.69;100.00;100509.74;1878333;74;85628;-77
2021/12/25 20:38:48;;;;;;;85.97;77.47;;;;;;;7.68;100.00;100507.52;1981902;71;39478;-76
2021/12/25 20:50:39;;;;;;;88.90;79.67;;;;;;;7.76;100.00;100502.83;1814580;76;86322;-77
2021/12/25 20:56:28;;;;;;;86.23;77.10;;;;;;;7.77;100.00;100496.75;1807498;78;86161;-77
2021/12/25 21:02:13;;;;;;;85.87;76.40;;;;;;;7.76;100.00;100493.70;1936303;73;86284;-76
2021/12/25 21:07:58;;;;;;;86.33;77.30;;;;;;;7.75;100.00;100494.25;1980808;71;39550;-78
2021/12/25 21:16:57;;;;;;;94.77;80.80;;;;;;;7.82;100.00;100484.87;1980530;71;39601;-72
2021/12/25 21:22:43;;;;;;;94.40;80.20;;;;;;;7.78;100.00;100475.75;1802586;78;85472;-77
2021/12/25 21:28:26;;;;;;;96.27;82.00;;;;;;;7.79;100.00;100476.01;1807412;78;86321;-76
2021/12/25 21:34:18;;;;;;;94.43;81.13;;;;;;;7.78;100.00;100468.01;1878586;74;86193;-81
2021/12/25 21:40:04;;;;;;;101.87;85.77;;;;;;;7.80;100.00;100458.87;1914339;73;86526;-73
2021/12/25 21:45:48;;;;;;;103.73;83.73;;;;;;;7.78;100.00;100461.09;1987036;71;39544;-73
2021/12/25 21:51:33;;;;;;;102.30;84.37;;;;;;;7.81;100.00;100455.55;1825773;75;86306;-76
2021/12/25 21:57:18;;;;;;;106.07;86.23;;;;;;;7.78;100.00;100449.48;1877669;75;86046;-74
2021/12/25 22:03:06;;;;;;;111.47;90.73;;;;;;;7.86;100.00;100448.65;1853396;76;86344;-71
2021/12/25 22:08:56;;;;;;;104.10;85.73;;;;;;;7.82;100.00;100450.31;1980869;71;39629;-82
2021/12/25 22:14:36;;;;;;;108.83;88.37;;;;;;;7.80;100.00;100446.42;1970564;72;86031;-73
2021/12/25 22:20:24;;;;;;;107.07;88.73;;;;;;;7.86;100.00;100437.59;1873345;75;86222;-70
2021/12/25 22:29:17;;;;;;;114.63;88.47;;;;;;;7.79;100.00;100436.47;1953359;70;86429;-79
2021/12/25 22:31:47;;;;;;;106.23;88.47;;;;;;;7.80;100.00;100449.19;1883973;72;938641;-75
2021/12/25 22:34:17;;;;;;;110.32;86.80;;;;;;;7.78;100.00;100445.34;1902639;73;940725;-78
2021/12/25 22:36:47;;;;;;;111.80;86.97;;;;;;;7.77;100.00;100442.30;1900500;74;940745;-74
2021/12/25 22:42:31;;;;;;;115.63;91.50;;;;;;;7.85;100.00;100436.75;1885662;74;86349;-71
2021/12/25 22:48:16;;;;;;;114.60;92.33;;;;;;;7.78;100.00;100430.69;1893388;73;85492;-80
2021/12/25 22:54:00;;;;;;;116.67;91.33;;;;;;;7.79;100.00;100440.61;1906285;72;86742;-71
2021/12/25 22:59:43;;;;;;;112.27;92.70;;;;;;;7.83;100.00;100436.77;1803568;78;86031;-81
2021/12/25 23:05:30;;;;;;;117.60;94.30;;;;;;;7.81;100.00;100435.66;1810030;78;86479;-73
2021/12/25 23:11:20;;;;;;;122.67;93.40;;;;;;;7.76;100.00;100424.59;1884284;73;86237;-78
2021/12/25 23:20:13;;;;;;;111.00;94.97;;;;;;;7.82;100.00;100417.97;1957669;73;86069;-74
2021/12/25 23:22:44;;;;;;;116.90;92.67;;;;;;;7.78;100.00;100425.16;1900055;72;945202;-74
2021/12/25 23:28:28;;;;;;;113.20;89.50;;;;;;;7.79;100.00;100410.20;1798639;78;86433;-74
2021/12/25 23:34:12;;;;;;;110.80;92.37;;;;;;;7.81;100.00;100409.39;1906719;73;86174;-74
2021/12/25 23:39:56;;;;;;;105.23;88.20;;;;;;;7.87;100.00;100397.78;1977988;71;39705;-74
2021/12/25 23:45:40;;;;;;;104.10;87.03;;;;;;;7.86;100.00;100394.73;1858051;76;85426;-75
2021/12/25 23:51:28;;;;;;;105.73;86.50;;;;;;;7.89;100.00;100396.93;1808952;78;86320;-74
2021/12/25 23:57:12;;;;;;;107.67;92.03;;;;;;;7.77;100.00;100374.56;1915714;73;86762;-75
